Time;durP1;ratioP1;P1;durP2;ratioP2;P2;SDS_P1;SDS_P2;PMS_P1;PMS_P2;Temp;Humidity;BMP_temperature;BMP_pressure;BME280_temperature;BME280_humidity;BME280_pressure;Samples;Min_cycle;Max_cycle;Signal;HPM_P1;HPM_P2
2024/04/09 00:03:08;;;;;;;8.80;2.30;;;;;;;;;;103750;1292;545712;-71
2024/04/09 00:06:46;;;;;;;6.30;2.50;;;;;;;;;;103845;1292;544846;-71
2024/04/09 00:10:24;;;;;;;7.20;4.20;;;;;;;;;;103810;1289;545299;-76
2024/04/09 00:14:04;;;;;;;6.90;3.30;;;;;;;;;;103700;1291;544984;-74
2024/04/09 00:17:45;;;;;;;6.40;2.20;;;;;;;;;;103734;1289;545068;-71
2024/04/09 00:21:16;;;;;;;8.20;2.70;;;;;;;;;;103868;1289;545513;-71
2024/04/09 00:24:54;;;;;;;7.10;2.60;;;;;;;;;;103746;1291;545034;-71
2024/04/09 00:28:31;;;;;;;6.30;2.50;;;;;;;;;;103614;1294;545021;-70
2024/04/09 00:32:09;;;;;;;8.30;2.40;;;;;;;;;;103904;1289;544743;-75
2024/04/09 00:35:47;;;;;;;5.80;2.20;;;;;;;;;;103810;1289;545893;-71
2024/04/09 00:39:25;;;;;;;13.70;2.70;;;;;;;;;;103867;1289;544882;-74
2024/04/09 00:43:02;;;;;;;7.40;2.50;;;;;;;;;;103794;1291;544819;-70
2024/04/09 00:46:38;;;;;;;6.20;2.50;;;;;;;;;;104543;1281;545009;-75
2024/04/09 00:50:17;;;;;;;7.60;2.40;;;;;;;;;;103727;1291;545411;-71
2024/04/09 00:53:54;;;;;;;7.70;2.40;;;;;;;;;;103628;1303;546027;-70
2024/04/09 00:57:33;;;;;;;6.30;2.80;;;;;;;;;;103701;1289;544979;-71
2024/04/09 01:01:04;;;;;;;6.40;2.70;;;;;;;;;;103653;1291;545017;-70
2024/04/09 01:04:46;;;;;;;7.30;2.60;;;;;;;;;;103668;1291;545056;-71
2024/04/09 01:08:23;;;;;;;7.70;3.10;;;;;;;;;;103806;1291;544900;-71
2024/04/09 01:12:01;;;;;;;5.80;2.70;;;;;;;;;;103659;1295;545989;-76
2024/04/09 01:15:38;;;;;;;8.50;3.10;;;;;;;;;;103879;1289;545424;-71
2024/04/09 01:19:16;;;;;;;9.30;3.40;;;;;;;;;;103638;1292;544784;-70
2024/04/09 01:22:54;;;;;;;7.70;2.80;;;;;;;;;;103732;1290;547085;-71
2024/04/09 01:26:30;;;;;;;9.10;2.70;;;;;;;;;;103678;1294;545980;-72
2024/04/09 01:30:08;;;;;;;7.00;2.80;;;;;;;;;;103790;1291;544782;-71
2024/04/09 01:33:46;;;;;;;6.70;2.50;;;;;;;;;;103895;1289;545379;-71
2024/04/09 01:37:24;;;;;;;6.40;2.60;;;;;;;;;;103792;1295;545186;-73
2024/04/09 01:40:57;;;;;;;5.80;2.30;;;;;;;;;;103875;1293;545695;-75
2024/04/09 01:44:34;;;;;;;8.00;2.40;;;;;;;;;;103623;1291;544889;-72
2024/04/09 01:48:15;;;;;;;7.10;2.40;;;;;;;;;;103829;1292;544857;-70
2024/04/09 01:51:54;;;;;;;6.80;2.40;;;;;;;;;;104205;1286;545434;-70
2024/04/09 01:55:31;;;;;;;6.70;2.10;;;;;;;;;;103745;1291;545716;-71
2024/04/09 01:59:07;;;;;;;6.40;2.00;;;;;;;;;;103831;1289;545316;-72
2024/04/09 02:02:55;;;;;;;5.80;2.30;;;;;;;;;;103833;1289;545252;-70
2024/04/09 02:06:23;;;;;;;6.90;3.10;;;;;;;;;;103842;1292;544977;-71
2024/04/09 02:10:01;;;;;;;8.20;3.20;;;;;;;;;;103686;1290;545096;-70
2024/04/09 02:13:40;;;;;;;7.60;2.60;;;;;;;;;;103669;1291;545960;-70
2024/04/09 02:17:16;;;;;;;8.20;2.50;;;;;;;;;;103811;1288;546033;-71
2024/04/09 02:20:53;;;;;;;6.10;2.30;;;;;;;;;;103732;1295;545133;-70
2024/04/09 02:24:30;;;;;;;8.30;2.20;;;;;;;;;;103693;1295;545083;-77
2024/04/09 02:28:08;;;;;;;9.60;2.80;;;;;;;;;;103922;1288;545026;-73
2024/04/09 02:31:46;;;;;;;6.80;2.60;;;;;;;;;;103708;1292;545049;-71
2024/04/09 02:35:24;;;;;;;7.40;2.70;;;;;;;;;;104132;1286;544783;-70
2024/04/09 02:39:02;;;;;;;6.50;2.50;;;;;;;;;;103789;1291;545027;-71
2024/04/09 02:42:44;;;;;;;6.10;2.30;;;;;;;;;;103634;1291;547809;-75
2024/04/09 02:46:15;;;;;;;6.30;2.50;;;;;;;;;;103726;1301;544834;-72
2024/04/09 02:49:53;;;;;;;7.20;2.90;;;;;;;;;;103564;1291;545054;-71
2024/04/09 02:53:32;;;;;;;6.80;2.50;;;;;;;;;;103728;1289;545052;-75
2024/04/09 02:57:07;;;;;;;6.20;2.30;;;;;;;;;;103839;1289;545045;-71
2024/04/09 03:00:46;;;;;;;6.90;2.40;;;;;;;;;;104358;1289;545032;-71
2024/04/09 03:04:22;;;;;;;6.80;2.30;;;;;;;;;;103780;1290;544966;-75
2024/04/09 03:08:00;;;;;;;5.70;2.60;;;;;;;;;;104128;1286;546275;-72
2024/04/09 03:11:37;;;;;;;9.90;2.90;;;;;;;;;;103875;1289;545358;-71
2024/04/09 03:15:15;;;;;;;6.60;2.30;;;;;;;;;;103861;1292;545507;-71
2024/04/09 03:18:53;;;;;;;7.60;2.40;;;;;;;;;;103797;1289;545172;-74
2024/04/09 03:22:30;;;;;;;6.40;2.20;;;;;;;;;;103703;1291;545237;-76
2024/04/09 03:26:11;;;;;;;4.60;1.90;;;;;;;;;;103799;1290;545465;-71
2024/04/09 03:29:49;;;;;;;7.10;2.40;;;;;;;;;;104360;1286;545113;-76
2024/04/09 03:33:23;;;;;;;7.10;2.20;;;;;;;;;;103781;1289;544919;-71
2024/04/09 03:37:00;;;;;;;7.00;2.10;;;;;;;;;;103822;1289;544753;-72
2024/04/09 03:40:38;;;;;;;7.80;2.60;;;;;;;;;;103762;1289;545667;-71
2024/04/09 03:44:16;;;;;;;15.60;3.50;;;;;;;;;;103938;1289;545428;-72
2024/04/09 03:47:52;;;;;;;16.00;2.90;;;;;;;;;;103733;1292;545420;-72
2024/04/09 03:51:30;;;;;;;8.80;2.60;;;;;;;;;;103990;1294;545953;-74
2024/04/09 03:55:07;;;;;;;6.50;2.30;;;;;;;;;;103741;1295;545173;-70
2024/04/09 03:58:48;;;;;;;9.70;3.10;;;;;;;;;;104364;1283;546171;-71
2024/04/09 04:02:23;;;;;;;8.70;3.20;;;;;;;;;;103673;1292;544968;-71
2024/04/09 04:06:01;;;;;;;9.20;2.90;;;;;;;;;;103922;1289;544742;-71
2024/04/09 04:09:37;;;;;;;8.30;2.80;;;;;;;;;;103655;1292;544782;-71
2024/04/09 04:13:15;;;;;;;7.50;2.80;;;;;;;;;;103870;1289;545041;-70
2024/04/09 04:16:53;;;;;;;7.60;2.70;;;;;;;;;;103942;1292;545043;-71
2024/04/09 04:20:31;;;;;;;8.20;2.50;;;;;;;;;;103685;1292;545036;-71
2024/04/09 04:24:10;;;;;;;6.40;2.70;;;;;;;;;;103672;1291;545593;-72
2024/04/09 04:27:45;;;;;;;14.50;3.50;;;;;;;;;;103835;1289;544998;-70
2024/04/09 04:31:26;;;;;;;27.60;4.30;;;;;;;;;;103753;1289;545328;-77
2024/04/09 04:35:01;;;;;;;11.70;2.90;;;;;;;;;;103793;1292;544993;-71
2024/04/09 04:38:38;;;;;;;8.20;2.70;;;;;;;;;;104246;1297;544841;-72
2024/04/09 04:42:16;;;;;;;8.40;3.00;;;;;;;;;;103773;1293;544986;-73
2024/04/09 04:45:49;;;;;;;9.10;3.20;;;;;;;;;;103785;1290;544804;-74
2024/04/09 04:49:30;;;;;;;9.20;3.10;;;;;;;;;;103744;1292;544753;-77
2024/04/09 04:53:07;;;;;;;10.60;3.30;;;;;;;;;;103870;1291;544981;-71
2024/04/09 04:56:45;;;;;;;8.50;2.90;;;;;;;;;;103629;1292;544980;-72
2024/04/09 05:00:22;;;;;;;10.30;4.00;;;;;;;;;;103760;1289;545579;-74
2024/04/09 05:04:00;;;;;;;12.00;3.60;;;;;;;;;;103918;1287;545453;-72
2024/04/09 05:07:37;;;;;;;11.60;3.40;;;;;;;;;;103697;1292;546349;-70
2024/04/09 05:11:16;;;;;;;8.70;3.10;;;;;;;;;;104019;1292;544741;-74
2024/04/09 05:14:52;;;;;;;10.80;3.40;;;;;;;;;;103673;1291;544912;-71
2024/04/09 05:18:30;;;;;;;10.90;3.30;;;;;;;;;;103624;1291;545251;-75
2024/04/09 05:22:09;;;;;;;8.60;3.30;;;;;;;;;;103792;1297;544822;-71
2024/04/09 05:25:45;;;;;;;8.00;2.80;;;;;;;;;;103556;1294;545657;-72
2024/04/09 05:29:18;;;;;;;9.60;2.90;;;;;;;;;;103680;1292;545465;-73
2024/04/09 05:33:00;;;;;;;12.90;2.90;;;;;;;;;;103622;1298;545507;-72
2024/04/09 05:36:37;;;;;;;9.00;2.60;;;;;;;;;;103853;1289;545269;-71
2024/04/09 05:40:15;;;;;;;11.20;2.60;;;;;;;;;;103867;1288;544904;-72
2024/04/09 05:43:52;;;;;;;8.50;3.60;;;;;;;;;;103829;1302;545880;-75
2024/04/09 05:47:30;;;;;;;9.70;4.50;;;;;;;;;;104117;1292;545121;-71
2024/04/09 05:51:07;;;;;;;8.90;4.20;;;;;;;;;;103664;1289;544842;-71
2024/04/09 05:54:45;;;;;;;10.30;3.90;;;;;;;;;;104055;1289;545114;-75
2024/04/09 05:58:22;;;;;;;8.50;2.80;;;;;;;;;;103986;1291;545653;-78
2024/04/09 06:02:00;;;;;;;6.70;2.50;;;;;;;;;;103632;1292;545559;-78
2024/04/09 06:05:37;;;;;;;8.20;2.60;;;;;;;;;;103651;1289;545031;-80
2024/04/09 06:09:11;;;;;;;8.10;2.20;;;;;;;;;;104809;1292;544776;-75
2024/04/09 06:12:48;;;;;;;13.90;2.30;;;;;;;;;;104211;1287;544780;-76
2024/04/09 06:16:29;;;;;;;5.90;2.30;;;;;;;;;;103690;1291;546470;-74
2024/04/09 06:20:07;;;;;;;11.60;2.60;;;;;;;;;;103735;1289;544849;-81
2024/04/09 06:23:45;;;;;;;9.40;2.60;;;;;;;;;;103720;1291;544975;-75
2024/04/09 06:27:22;;;;;;;7.40;2.30;;;;;;;;;;103858;1289;544958;-72
2024/04/09 06:31:01;;;;;;;6.60;2.00;;;;;;;;;;104060;1301;544970;-75
2024/04/09 06:34:36;;;;;;;5.60;2.00;;;;;;;;;;103709;1291;545603;-75
2024/04/09 06:38:19;;;;;;;9.00;2.10;;;;;;;;;;103698;1295;546238;-79
2024/04/09 06:41:51;;;;;;;7.20;2.10;;;;;;;;;;104497;1282;544937;-73
2024/04/09 06:45:30;;;;;;;6.90;2.20;;;;;;;;;;103687;1291;545150;-73
2024/04/09 06:49:07;;;;;;;8.10;2.10;;;;;;;;;;104136;1286;545115;-72
2024/04/09 06:52:45;;;;;;;8.00;2.10;;;;;;;;;;103954;1288;544758;-77
2024/04/09 06:56:23;;;;;;;6.30;2.10;;;;;;;;;;103864;1292;545962;-72
2024/04/09 06:59:59;;;;;;;9.80;2.30;;;;;;;;;;103741;1292;546799;-71
2024/04/09 07:03:37;;;;;;;8.70;2.60;;;;;;;;;;103776;1291;544801;-72
2024/04/09 07:07:20;;;;;;;8.80;2.60;;;;;;;;;;103967;1288;548019;-72
2024/04/09 07:10:55;;;;;;;7.30;2.20;;;;;;;;;;103770;1295;545283;-71
2024/04/09 07:14:29;;;;;;;7.80;2.20;;;;;;;;;;103674;1291;545526;-72
2024/04/09 07:18:06;;;;;;;8.80;2.20;;;;;;;;;;103752;1293;545284;-72
2024/04/09 07:21:40;;;;;;;7.10;2.10;;;;;;;;;;103692;1292;545380;-74
2024/04/09 07:25:21;;;;;;;7.30;2.10;;;;;;;;;;103690;1290;544960;-69
2024/04/09 07:28:59;;;;;;;6.90;2.10;;;;;;;;;;103680;1292;545434;-74
2024/04/09 07:32:36;;;;;;;9.00;2.40;;;;;;;;;;103586;1291;545250;-76
2024/04/09 07:36:14;;;;;;;6.00;2.30;;;;;;;;;;103680;1292;545223;-71
2024/04/09 07:39:51;;;;;;;12.30;2.90;;;;;;;;;;103821;1294;544806;-71
2024/04/09 07:43:30;;;;;;;8.90;2.70;;;;;;;;;;103766;1294;545631;-72
2024/04/09 07:47:10;;;;;;;6.80;2.40;;;;;;;;;;103591;1298;545144;-73
2024/04/09 07:50:45;;;;;;;8.90;3.10;;;;;;;;;;103845;1289;545978;-73
2024/04/09 07:54:21;;;;;;;8.80;2.30;;;;;;;;;;103756;1291;545325;-68
2024/04/09 07:57:59;;;;;;;14.70;2.90;;;;;;;;;;103738;1291;545189;-70
2024/04/09 08:01:35;;;;;;;7.40;2.20;;;;;;;;;;103868;1292;544689;-71
2024/04/09 08:05:16;;;;;;;8.40;2.50;;;;;;;;;;103842;1289;544943;-72
2024/04/09 08:08:51;;;;;;;10.20;2.70;;;;;;;;;;103819;1288;545698;-69
2024/04/09 08:12:34;;;;;;;18.20;3.00;;;;;;;;;;103618;1291;545388;-81
2024/04/09 08:16:06;;;;;;;13.60;2.50;;;;;;;;;;103817;1290;545659;-73
2024/04/09 08:19:44;;;;;;;21.20;3.50;;;;;;;;;;103685;1291;545105;-69
2024/04/09 08:23:21;;;;;;;19.70;3.60;;;;;;;;;;103665;1291;545002;-75
2024/04/09 08:26:59;;;;;;;11.80;2.50;;;;;;;;;;103608;1304;545740;-71
2024/04/09 08:30:37;;;;;;;12.70;2.60;;;;;;;;;;103593;1291;545073;-71
2024/04/09 08:34:14;;;;;;;9.40;2.50;;;;;;;;;;103788;1289;545949;-69
2024/04/09 08:37:51;;;;;;;12.70;3.00;;;;;;;;;;103534;1292;545775;-74
2024/04/09 08:41:29;;;;;;;16.90;3.50;;;;;;;;;;103743;1289;544959;-76
2024/04/09 08:45:08;;;;;;;11.00;2.60;;;;;;;;;;103567;1292;546034;-73
2024/04/09 08:48:44;;;;;;;9.50;2.20;;;;;;;;;;103774;1289;544795;-71
2024/04/09 08:52:22;;;;;;;17.20;3.10;;;;;;;;;;103604;1295;546008;-75
2024/04/09 08:56:00;;;;;;;10.50;2.70;;;;;;;;;;104487;1289;545108;-72
2024/04/09 08:59:36;;;;;;;12.80;3.30;;;;;;;;;;103755;1289;545332;-71
2024/04/09 09:03:14;;;;;;;8.90;2.60;;;;;;;;;;103784;1290;545044;-72
2024/04/09 09:06:51;;;;;;;9.70;2.00;;;;;;;;;;103602;1291;545754;-73
2024/04/09 09:10:28;;;;;;;11.40;2.80;;;;;;;;;;104215;1284;545131;-75
2024/04/09 09:14:07;;;;;;;12.10;2.60;;;;;;;;;;103636;1292;545529;-74
2024/04/09 09:17:44;;;;;;;10.40;2.50;;;;;;;;;;103983;1292;545038;-69
2024/04/09 09:21:21;;;;;;;12.30;2.70;;;;;;;;;;104243;1282;544908;-70
2024/04/09 09:24:59;;;;;;;10.90;3.50;;;;;;;;;;104358;1288;546868;-75
2024/04/09 09:28:36;;;;;;;16.30;6.10;;;;;;;;;;104111;1285;545189;-70
2024/04/09 09:32:18;;;;;;;8.30;2.30;;;;;;;;;;103677;1289;544972;-69
2024/04/09 09:35:52;;;;;;;9.00;2.60;;;;;;;;;;104055;1288;545013;-70
2024/04/09 09:39:30;;;;;;;12.10;2.90;;;;;;;;;;103636;1291;545766;-70
2024/04/09 09:43:07;;;;;;;14.40;3.00;;;;;;;;;;103645;1294;545115;-71
2024/04/09 09:46:45;;;;;;;13.00;3.00;;;;;;;;;;103897;1286;544997;-74
2024/04/09 09:50:21;;;;;;;7.10;2.40;;;;;;;;;;103815;1290;545122;-72
2024/04/09 09:53:59;;;;;;;8.90;2.40;;;;;;;;;;103668;1293;545774;-70
2024/04/09 09:57:38;;;;;;;10.10;2.70;;;;;;;;;;103551;1291;545165;-70
2024/04/09 10:01:14;;;;;;;10.30;2.70;;;;;;;;;;103665;1291;544853;-71
2024/04/09 10:04:51;;;;;;;13.50;3.70;;;;;;;;;;103669;1295;544828;-69
2024/04/09 10:08:29;;;;;;;14.20;4.10;;;;;;;;;;103741;1291;546028;-70
2024/04/09 10:12:07;;;;;;;8.10;2.30;;;;;;;;;;103684;1292;545139;-75
2024/04/09 10:15:45;;;;;;;10.70;2.80;;;;;;;;;;103594;1293;544713;-71
2024/04/09 10:19:21;;;;;;;12.90;2.50;;;;;;;;;;103915;1288;544995;-69
2024/04/09 10:23:03;;;;;;;10.10;2.40;;;;;;;;;;103815;1289;545411;-71
2024/04/09 10:26:36;;;;;;;8.60;2.30;;;;;;;;;;103749;1292;545426;-71
2024/04/09 10:30:14;;;;;;;9.80;2.50;;;;;;;;;;103942;1292;544974;-71
2024/04/09 10:33:56;;;;;;;13.00;3.10;;;;;;;;;;104347;1283;545469;-71
2024/04/09 10:37:28;;;;;;;8.70;2.50;;;;;;;;;;103612;1296;545152;-70
2024/04/09 10:41:05;;;;;;;10.00;3.00;;;;;;;;;;103667;1292;545217;-70
2024/04/09 10:44:44;;;;;;;8.50;2.60;;;;;;;;;;103685;1292;545641;-70
2024/04/09 10:48:21;;;;;;;10.80;2.70;;;;;;;;;;103606;1296;545338;-70
2024/04/09 10:51:54;;;;;;;10.70;2.60;;;;;;;;;;103799;1291;545394;-72
2024/04/09 10:55:36;;;;;;;8.80;3.00;;;;;;;;;;103728;1292;545327;-75
2024/04/09 10:59:21;;;;;;;7.70;2.60;;;;;;;;;;103746;1292;545224;-71
2024/04/09 11:02:51;;;;;;;9.70;2.70;;;;;;;;;;103656;1292;544810;-70
2024/04/09 11:06:28;;;;;;;9.40;2.70;;;;;;;;;;103890;1291;544915;-70
2024/04/09 11:10:13;;;;;;;9.10;2.40;;;;;;;;;;103938;1289;545419;-74
2024/04/09 11:13:44;;;;;;;13.70;2.80;;;;;;;;;;103762;1289;544785;-74
2024/04/09 11:17:22;;;;;;;10.80;2.80;;;;;;;;;;103530;1294;544999;-71
2024/04/09 11:21:00;;;;;;;11.80;2.70;;;;;;;;;;103590;1295;545815;-74
2024/04/09 11:24:36;;;;;;;9.70;2.50;;;;;;;;;;104324;1283;545941;-69
2024/04/09 11:28:13;;;;;;;12.30;2.80;;;;;;;;;;103641;1290;545669;-70
2024/04/09 11:31:50;;;;;;;7.20;2.50;;;;;;;;;;103891;1288;544969;-70
2024/04/09 11:35:35;;;;;;;9.50;2.40;;;;;;;;;;103551;1293;548141;-72
2024/04/09 11:39:07;;;;;;;10.90;2.80;;;;;;;;;;103816;1289;544751;-72
2024/04/09 11:42:43;;;;;;;7.40;2.50;;;;;;;;;;103794;1289;544931;-69
2024/04/09 11:46:21;;;;;;;8.20;2.40;;;;;;;;;;103830;1302;544886;-70
2024/04/09 11:49:58;;;;;;;7.30;2.40;;;;;;;;;;103809;1290;544747;-70
2024/04/09 11:53:37;;;;;;;7.00;2.40;;;;;;;;;;103711;1290;545109;-72
2024/04/09 11:57:13;;;;;;;8.50;2.60;;;;;;;;;;103772;1290;545214;-71
2024/04/09 12:00:52;;;;;;;10.20;2.50;;;;;;;;;;104035;1292;547145;-71
2024/04/09 12:04:28;;;;;;;9.40;3.00;;;;;;;;;;103796;1289;545384;-71
2024/04/09 12:08:06;;;;;;;10.40;2.60;;;;;;;;;;103805;1289;544946;-71
2024/04/09 12:11:43;;;;;;;12.80;3.00;;;;;;;;;;103744;1302;545561;-72
2024/04/09 12:15:20;;;;;;;7.00;2.40;;;;;;;;;;103838;1289;544846;-71
2024/04/09 12:18:58;;;;;;;9.60;2.60;;;;;;;;;;103816;1292;544709;-70
2024/04/09 12:22:35;;;;;;;11.90;2.90;;;;;;;;;;103626;1291;547354;-70
2024/04/09 12:26:13;;;;;;;14.60;3.30;;;;;;;;;;103793;1290;545233;-71
2024/04/09 12:29:50;;;;;;;8.10;2.60;;;;;;;;;;103665;1291;544991;-76
2024/04/09 12:33:29;;;;;;;13.90;2.90;;;;;;;;;;103758;1289;544856;-73
2024/04/09 12:37:05;;;;;;;7.70;2.30;;;;;;;;;;103637;1295;544951;-73
2024/04/09 12:40:43;;;;;;;11.40;2.90;;;;;;;;;;103912;1289;545289;-72
2024/04/09 12:44:20;;;;;;;12.10;2.80;;;;;;;;;;103672;1292;544928;-71
2024/04/09 12:47:58;;;;;;;15.40;3.00;;;;;;;;;;103721;1292;545494;-77
2024/04/09 12:51:35;;;;;;;9.60;2.40;;;;;;;;;;103746;1295;545985;-79
2024/04/09 12:55:13;;;;;;;8.90;2.40;;;;;;;;;;103820;1290;545248;-70
2024/04/09 12:58:46;;;;;;;8.90;2.80;;;;;;;;;;103753;1292;544757;-73
2024/04/09 13:02:28;;;;;;;9.90;3.20;;;;;;;;;;103682;1292;545212;-69
2024/04/09 13:06:06;;;;;;;8.20;2.90;;;;;;;;;;103646;1291;544942;-73
2024/04/09 13:09:43;;;;;;;10.70;3.00;;;;;;;;;;103763;1291;545047;-72
2024/04/09 13:13:20;;;;;;;12.00;3.30;;;;;;;;;;104005;1289;544792;-71
2024/04/09 13:16:58;;;;;;;15.50;3.20;;;;;;;;;;103647;1292;544759;-70
2024/04/09 13:20:35;;;;;;;14.30;3.30;;;;;;;;;;103629;1291;546026;-70
2024/04/09 13:24:13;;;;;;;10.30;3.30;;;;;;;;;;103802;1292;546633;-71
2024/04/09 13:27:50;;;;;;;13.70;3.10;;;;;;;;;;103870;1289;545032;-70
2024/04/09 13:31:28;;;;;;;16.50;2.90;;;;;;;;;;103800;1294;545936;-69
2024/04/09 13:35:05;;;;;;;13.00;2.90;;;;;;;;;;103732;1292;544972;-73
2024/04/09 13:38:44;;;;;;;11.00;2.70;;;;;;;;;;104099;1288;544925;-70
2024/04/09 13:42:20;;;;;;;11.20;2.80;;;;;;;;;;103963;1289;544999;-71
2024/04/09 13:45:57;;;;;;;15.10;3.60;;;;;;;;;;103660;1295;544925;-69
2024/04/09 13:49:35;;;;;;;12.90;2.70;;;;;;;;;;103758;1294;545656;-69
2024/04/09 13:53:13;;;;;;;11.20;2.30;;;;;;;;;;103842;1292;545721;-74
2024/04/09 13:56:50;;;;;;;10.20;2.90;;;;;;;;;;103630;1291;545671;-73
2024/04/09 14:00:28;;;;;;;10.00;2.70;;;;;;;;;;103724;1290;545321;-72
2024/04/09 14:04:05;;;;;;;10.50;2.60;;;;;;;;;;103831;1291;545828;-71
2024/04/09 14:07:42;;;;;;;14.70;3.00;;;;;;;;;;103894;1288;546705;-71
2024/04/09 14:11:20;;;;;;;11.90;2.70;;;;;;;;;;103762;1289;546207;-71
2024/04/09 14:14:57;;;;;;;34.10;5.00;;;;;;;;;;103738;1292;545741;-70
2024/04/09 14:18:38;;;;;;;10.40;2.60;;;;;;;;;;104306;1283;544838;-71
2024/04/09 14:22:12;;;;;;;12.50;3.10;;;;;;;;;;103900;1289;544827;-71
2024/04/09 14:25:50;;;;;;;9.70;3.00;;;;;;;;;;103858;1289;544903;-70
2024/04/09 14:29:27;;;;;;;8.40;2.80;;;;;;;;;;103807;1288;544911;-71
2024/04/09 14:33:05;;;;;;;10.70;3.00;;;;;;;;;;103664;1292;544966;-70
2024/04/09 14:36:42;;;;;;;11.90;3.40;;;;;;;;;;103670;1291;545079;-69
2024/04/09 14:40:20;;;;;;;9.00;3.10;;;;;;;;;;103640;1295;545043;-71
2024/04/09 14:43:57;;;;;;;9.00;2.80;;;;;;;;;;104137;1286;546594;-74
2024/04/09 14:47:35;;;;;;;11.10;3.00;;;;;;;;;;103668;1292;545030;-72
2024/04/09 14:51:11;;;;;;;12.00;3.20;;;;;;;;;;103986;1288;544996;-74
2024/04/09 14:54:49;;;;;;;10.30;3.30;;;;;;;;;;103829;1289;544853;-71
2024/04/09 14:58:33;;;;;;;10.10;3.00;;;;;;;;;;103667;1297;545616;-71
2024/04/09 15:02:05;;;;;;;8.40;2.60;;;;;;;;;;103806;1290;545003;-72
2024/04/09 15:05:51;;;;;;;11.40;2.70;;;;;;;;;;103641;1303;545351;-72
2024/04/09 15:09:19;;;;;;;10.00;2.70;;;;;;;;;;103857;1289;544801;-71
2024/04/09 15:13:00;;;;;;;9.20;2.80;;;;;;;;;;103714;1291;545288;-79
2024/04/09 15:16:31;;;;;;;9.00;2.90;;;;;;;;;;103663;1291;544892;-71
2024/04/09 15:20:12;;;;;;;10.30;3.00;;;;;;;;;;103686;1289;544772;-72
2024/04/09 15:23:49;;;;;;;8.70;2.80;;;;;;;;;;103856;1289;544904;-72
2024/04/09 15:27:27;;;;;;;11.50;4.10;;;;;;;;;;103668;1290;546069;-80
2024/04/09 15:31:08;;;;;;;9.30;3.40;;;;;;;;;;103788;1294;544767;-73
2024/04/09 15:34:42;;;;;;;12.90;3.20;;;;;;;;;;103718;1302;544784;-72
2024/04/09 15:38:19;;;;;;;8.00;2.90;;;;;;;;;;103842;1289;544857;-74
2024/04/09 15:41:57;;;;;;;9.60;3.50;;;;;;;;;;104040;1287;544780;-76
2024/04/09 15:45:34;;;;;;;10.60;3.40;;;;;;;;;;104525;1283;544822;-74
2024/04/09 15:49:12;;;;;;;11.50;3.30;;;;;;;;;;103847;1289;544800;-72
2024/04/09 15:52:49;;;;;;;9.70;3.20;;;;;;;;;;103808;1289;544990;-72
2024/04/09 15:56:27;;;;;;;11.40;3.50;;;;;;;;;;103607;1292;545308;-75
2024/04/09 16:00:11;;;;;;;13.00;3.30;;;;;;;;;;103697;1292;545315;-71
2024/04/09 16:03:42;;;;;;;8.90;3.00;;;;;;;;;;103821;1289;544748;-74
2024/04/09 16:07:19;;;;;;;8.60;2.90;;;;;;;;;;104606;1282;545921;-75
2024/04/09 16:10:57;;;;;;;21.00;3.80;;;;;;;;;;103894;1289;545443;-73
2024/04/09 16:14:36;;;;;;;10.40;3.40;;;;;;;;;;103984;1289;545601;-71
2024/04/09 16:18:12;;;;;;;9.50;3.40;;;;;;;;;;103677;1302;546061;-78
2024/04/09 16:21:49;;;;;;;11.50;4.10;;;;;;;;;;103857;1289;544932;-73
2024/04/09 16:25:27;;;;;;;11.90;3.90;;;;;;;;;;103742;1289;545083;-72
2024/04/09 16:29:04;;;;;;;10.40;3.40;;;;;;;;;;103855;1289;544900;-77
2024/04/09 16:32:42;;;;;;;9.80;3.60;;;;;;;;;;104076;1287;545248;-73
2024/04/09 16:36:19;;;;;;;11.90;3.00;;;;;;;;;;103718;1291;544952;-71
2024/04/09 16:39:57;;;;;;;11.50;3.40;;;;;;;;;;103654;1291;545939;-72
2024/04/09 16:43:34;;;;;;;9.20;3.10;;;;;;;;;;103901;1289;544783;-70
2024/04/09 16:47:11;;;;;;;9.50;3.20;;;;;;;;;;104374;1286;545022;-70
2024/04/09 16:50:50;;;;;;;9.40;2.90;;;;;;;;;;103735;1291;545909;-73
2024/04/09 16:54:27;;;;;;;10.20;3.00;;;;;;;;;;103791;1289;544943;-74
2024/04/09 16:58:05;;;;;;;9.40;3.00;;;;;;;;;;104098;1289;545171;-73
2024/04/09 17:01:42;;;;;;;10.20;3.10;;;;;;;;;;104425;1289;545042;-71
2024/04/09 17:05:19;;;;;;;11.10;2.80;;;;;;;;;;103819;1290;544986;-72
2024/04/09 17:08:57;;;;;;;7.50;3.00;;;;;;;;;;103683;1291;547923;-72
2024/04/09 17:12:30;;;;;;;9.40;3.40;;;;;;;;;;103841;1289;544925;-73
2024/04/09 17:16:13;;;;;;;11.50;3.40;;;;;;;;;;103889;1288;544936;-69
2024/04/09 17:19:49;;;;;;;9.00;3.10;;;;;;;;;;104313;1283;545411;-77
2024/04/09 17:23:27;;;;;;;7.80;2.80;;;;;;;;;;103788;1289;544774;-70
2024/04/09 17:27:04;;;;;;;10.50;3.20;;;;;;;;;;103864;1289;545160;-73
2024/04/09 17:30:41;;;;;;;9.90;2.90;;;;;;;;;;103833;1289;544997;-70
2024/04/09 17:34:19;;;;;;;7.80;3.10;;;;;;;;;;103837;1292;545282;-71
2024/04/09 17:37:57;;;;;;;8.80;3.20;;;;;;;;;;103838;1289;545187;-78
2024/04/09 17:41:34;;;;;;;8.40;3.20;;;;;;;;;;103703;1292;544748;-77
2024/04/09 17:45:11;;;;;;;10.60;3.20;;;;;;;;;;103812;1289;544846;-73
2024/04/09 17:48:45;;;;;;;9.50;3.60;;;;;;;;;;103694;1292;546521;-77
2024/04/09 17:52:27;;;;;;;8.90;3.50;;;;;;;;;;103795;1288;544938;-70
2024/04/09 17:56:04;;;;;;;10.00;3.30;;;;;;;;;;103784;1292;545063;-73
2024/04/09 17:59:37;;;;;;;13.80;3.80;;;;;;;;;;103791;1289;545912;-70
2024/04/09 18:03:21;;;;;;;10.90;3.40;;;;;;;;;;103773;1295;544916;-71
2024/04/09 18:06:56;;;;;;;8.90;4.10;;;;;;;;;;103857;1290;545267;-71
2024/04/09 18:10:30;;;;;;;12.20;4.40;;;;;;;;;;104168;1286;545684;-71
2024/04/09 18:14:11;;;;;;;13.30;4.80;;;;;;;;;;103827;1289;546018;-71
2024/04/09 18:17:52;;;;;;;12.10;4.80;;;;;;;;;;103634;1305;545393;-74
2024/04/09 18:21:29;;;;;;;13.90;4.80;;;;;;;;;;105431;1292;544895;-71
2024/04/09 18:25:03;;;;;;;18.30;4.90;;;;;;;;;;103821;1289;545196;-71
2024/04/09 18:28:41;;;;;;;20.60;5.40;;;;;;;;;;104012;1289;545453;-68
2024/04/09 18:32:18;;;;;;;23.80;5.10;;;;;;;;;;103689;1289;545483;-70
2024/04/09 18:36:00;;;;;;;23.30;5.00;;;;;;;;;;104066;1286;545016;-69
2024/04/09 18:39:35;;;;;;;24.20;5.10;;;;;;;;;;103507;1297;547841;-71
2024/04/09 18:43:11;;;;;;;22.80;5.70;;;;;;;;;;103503;1292;544930;-69
2024/04/09 18:46:49;;;;;;;25.50;5.00;;;;;;;;;;103786;1289;544789;-69
2024/04/09 18:50:26;;;;;;;26.00;4.80;;;;;;;;;;103813;1292;545417;-70
2024/04/09 18:54:03;;;;;;;21.30;5.20;;;;;;;;;;103770;1292;545986;-76
2024/04/09 18:57:41;;;;;;;23.10;5.40;;;;;;;;;;103559;1291;545066;-71
2024/04/09 19:01:18;;;;;;;23.90;5.10;;;;;;;;;;103681;1292;544765;-75
2024/04/09 19:04:56;;;;;;;24.70;5.20;;;;;;;;;;103977;1289;544728;-70
2024/04/09 19:08:30;;;;;;;21.90;4.90;;;;;;;;;;103829;1289;544966;-72
2024/04/09 19:12:11;;;;;;;24.30;5.20;;;;;;;;;;103886;1292;544925;-70
2024/04/09 19:15:48;;;;;;;23.60;5.00;;;;;;;;;;103673;1294;546966;-71
2024/04/09 19:19:26;;;;;;;28.90;5.50;;;;;;;;;;103755;1289;544891;-70
2024/04/09 19:23:03;;;;;;;31.80;5.00;;;;;;;;;;103887;1289;545692;-70
2024/04/09 19:26:41;;;;;;;26.10;4.60;;;;;;;;;;103565;1297;545898;-71
2024/04/09 19:30:18;;;;;;;25.40;4.70;;;;;;;;;;103801;1290;544913;-72
2024/04/09 19:33:56;;;;;;;21.60;4.50;;;;;;;;;;103896;1290;545190;-74
2024/04/09 19:37:34;;;;;;;21.10;4.60;;;;;;;;;;103610;1292;545042;-69
2024/04/09 19:41:11;;;;;;;25.10;4.90;;;;;;;;;;103679;1292;546158;-73
2024/04/09 19:44:48;;;;;;;19.90;3.90;;;;;;;;;;103906;1291;545930;-70
2024/04/09 19:48:26;;;;;;;28.80;4.70;;;;;;;;;;103690;1292;545009;-71
2024/04/09 19:52:03;;;;;;;26.60;4.00;;;;;;;;;;103558;1295;545541;-70
2024/04/09 19:55:41;;;;;;;16.40;3.50;;;;;;;;;;103715;1292;546377;-71
2024/04/09 19:59:18;;;;;;;19.80;3.50;;;;;;;;;;103469;1295;544947;-74
2024/04/09 20:02:56;;;;;;;19.70;3.90;;;;;;;;;;103882;1289;544854;-71
2024/04/09 20:06:33;;;;;;;21.90;3.50;;;;;;;;;;103670;1292;544774;-70
2024/04/09 20:10:11;;;;;;;16.80;3.10;;;;;;;;;;103648;1290;544777;-70
2024/04/09 20:13:49;;;;;;;17.50;3.60;;;;;;;;;;103781;1295;544966;-70
2024/04/09 20:17:27;;;;;;;20.20;3.60;;;;;;;;;;103574;1292;544921;-69
2024/04/09 20:21:03;;;;;;;15.20;3.50;;;;;;;;;;103739;1292;545254;-70
2024/04/09 20:24:42;;;;;;;18.60;3.80;;;;;;;;;;103570;1291;545257;-70
2024/04/09 20:28:19;;;;;;;15.10;3.30;;;;;;;;;;103545;1293;545414;-69
2024/04/09 20:31:55;;;;;;;14.30;3.20;;;;;;;;;;103674;1291;545060;-74
2024/04/09 20:35:33;;;;;;;15.80;3.90;;;;;;;;;;103643;1291;544860;-73
2024/04/09 20:39:12;;;;;;;13.50;2.90;;;;;;;;;;103741;1292;545332;-72
2024/04/09 20:42:48;;;;;;;21.00;3.60;;;;;;;;;;103722;1289;544891;-71
2024/04/09 20:46:25;;;;;;;14.30;3.30;;;;;;;;;;104008;1288;544823;-72
2024/04/09 20:50:04;;;;;;;17.90;3.10;;;;;;;;;;103995;1287;545473;-70
2024/04/09 20:53:36;;;;;;;16.10;3.20;;;;;;;;;;103741;1289;545105;-71
2024/04/09 20:57:18;;;;;;;13.50;3.00;;;;;;;;;;103671;1294;545532;-68